Time;durP1;ratioP1;P1;durP2;ratioP2;P2;SDS_P1;SDS_P2;PMS_P1;PMS_P2;Temp;Humidity;BMP_temperature;BMP_pressure;BME280_temperature;BME280_humidity;BME280_pressure;Samples;Min_cycle;Max_cycle;Signal;HPM_P1;HPM_P2
2023/03/02 00:00:41;;;;;;;101.43;36.55;;;;;;;;;;5092739;28;20369;-77
2023/03/02 00:03:07;;;;;;;101.95;35.50;;;;;;;;;;5092659;28;20365;-77
2023/03/02 00:05:33;;;;;;;101.65;35.13;;;;;;;;;;5076135;28;20476;-77
2023/03/02 00:07:58;;;;;;;93.22;34.90;;;;;;;;;;5075696;28;20036;-78
2023/03/02 00:10:24;;;;;;;99.53;35.85;;;;;;;;;;5093708;28;20028;-77
2023/03/02 00:12:49;;;;;;;104.10;35.35;;;;;;;;;;5092535;28;20032;-78
2023/03/02 00:15:15;;;;;;;70.60;22.20;;;;;;;;;;5092572;28;20023;-78
2023/03/02 00:17:40;;;;;;;104.40;37.72;;;;;;;;;;5075544;28;20032;-78
2023/03/02 00:20:10;;;;;;;114.75;38.83;;;;;;;;;;5075753;28;20028;-77
2023/03/02 00:22:36;;;;;;;91.30;34.27;;;;;;;;;;5092610;28;20028;-77
2023/03/02 00:25:03;;;;;;;100.75;33.70;;;;;;;;;;5079164;28;20074;-77
2023/03/02 00:27:28;;;;;;;98.32;33.85;;;;;;;;;;5100783;28;20043;-77
2023/03/02 00:29:57;;;;;;;94.78;33.38;;;;;;;;;;5084547;28;20024;-77
2023/03/02 00:32:22;;;;;;;89.70;31.92;;;;;;;;;;5068140;28;20019;-77
2023/03/02 00:34:48;;;;;;;91.38;32.50;;;;;;;;;;5093108;28;20036;-78
2023/03/02 00:37:13;;;;;;;98.07;35.35;;;;;;;;;;5086457;28;20077;-77
2023/03/02 00:39:39;;;;;;;99.18;32.72;;;;;;;;;;5082469;28;20028;-77
2023/03/02 00:42:04;;;;;;;85.72;31.88;;;;;;;;;;5099366;28;20024;-77
2023/03/02 00:44:29;;;;;;;97.57;32.92;;;;;;;;;;5099891;28;20500;-77
2023/03/02 00:46:55;;;;;;;89.65;32.65;;;;;;;;;;5082331;28;20024;-78
2023/03/02 00:49:20;;;;;;;95.28;35.10;;;;;;;;;;5082310;28;20051;-78
2023/03/02 00:51:46;;;;;;;90.78;34.90;;;;;;;;;;5099225;28;20024;-77
2023/03/02 00:54:11;;;;;;;101.85;35.58;;;;;;;;;;5100369;28;20035;-78
2023/03/02 00:56:37;;;;;;;87.88;31.30;;;;;;;;;;5099266;28;20063;-78
2023/03/02 00:59:09;;;;;;;111.22;38.08;;;;;;;;;;5100356;28;20052;-78
2023/03/02 01:01:36;;;;;;;94.78;32.65;;;;;;;;;;5082640;28;20126;-78
2023/03/02 01:04:01;;;;;;;109.07;37.03;;;;;;;;;;5100201;28;20028;-77
2023/03/02 01:06:27;;;;;;;105.93;35.88;;;;;;;;;;5081979;28;20043;-78
2023/03/02 01:08:52;;;;;;;112.93;37.78;;;;;;;;;;5100288;28;20035;-77
2023/03/02 01:11:19;;;;;;;98.10;36.08;;;;;;;;;;5100313;28;20028;-77
2023/03/02 01:13:45;;;;;;;102.65;35.75;;;;;;;;;;5082149;28;20028;-77
2023/03/02 01:16:10;;;;;;;101.25;35.25;;;;;;;;;;5064996;28;20027;-77
2023/03/02 01:18:37;;;;;;;105.63;34.72;;;;;;;;;;5082094;28;20035;-77
2023/03/02 01:21:05;;;;;;;97.30;32.28;;;;;;;;;;5074250;28;20450;-77
2023/03/02 01:23:30;;;;;;;96.93;33.53;;;;;;;;;;5077740;28;20450;-77
2023/03/02 01:25:56;;;;;;;102.55;35.08;;;;;;;;;;5100239;28;20035;-77
2023/03/02 01:28:21;;;;;;;101.07;35.33;;;;;;;;;;5081585;28;20458;-77
2023/03/02 01:30:47;;;;;;;103.28;36.20;;;;;;;;;;5066755;28;20032;-77
2023/03/02 01:33:13;;;;;;;102.00;34.25;;;;;;;;;;5102030;28;20027;-78
2023/03/02 01:35:38;;;;;;;102.85;34.65;;;;;;;;;;5050213;28;20433;-78
2023/03/02 01:38:04;;;;;;;103.07;36.33;;;;;;;;;;5098705;28;20032;-76
2023/03/02 01:40:29;;;;;;;100.43;34.88;;;;;;;;;;5098773;28;20092;-78
2023/03/02 01:42:57;;;;;;;104.07;35.28;;;;;;;;;;5098339;28;20422;-77
2023/03/02 01:45:41;;;;;;;93.22;32.70;;;;;;;;;;5078855;28;20491;-78
2023/03/02 01:48:09;;;;;;;104.65;34.47;;;;;;;;;;5096557;28;20032;-76
2023/03/02 01:50:34;;;;;;;91.72;34.05;;;;;;;;;;5078605;28;20036;-78
2023/03/02 01:52:59;;;;;;;94.72;33.15;;;;;;;;;;5061877;28;20487;-78
2023/03/02 01:55:25;;;;;;;99.68;34.20;;;;;;;;;;5096551;28;20071;-78
2023/03/02 01:57:51;;;;;;;99.53;34.40;;;;;;;;;;5078207;28;20027;-78
2023/03/02 02:00:20;;;;;;;95.18;34.85;;;;;;;;;;5096500;28;20054;-77
2023/03/02 02:02:45;;;;;;;87.70;31.25;;;;;;;;;;5078789;28;20513;-78
2023/03/02 02:05:16;;;;;;;101.95;37.10;;;;;;;;;;5078378;28;20052;-77
2023/03/02 02:07:41;;;;;;;99.35;34.15;;;;;;;;;;5078195;28;20081;-77
2023/03/02 02:10:07;;;;;;;91.82;32.17;;;;;;;;;;5061414;28;20024;-77
2023/03/02 02:12:33;;;;;;;101.10;34.90;;;;;;;;;;5078094;28;20016;-78
2023/03/02 02:14:59;;;;;;;101.03;33.55;;;;;;;;;;5061371;28;20389;-76
2023/03/02 02:17:25;;;;;;;95.43;32.58;;;;;;;;;;5045011;28;20039;-77
2023/03/02 02:19:59;;;;;;;99.30;33.97;;;;;;;;;;5078184;28;20024;-77
2023/03/02 02:22:44;;;;;;;88.35;30.05;;;;;;;;;;5091815;28;20035;-77
2023/03/02 02:25:22;;;;;;;103.45;36.10;;;;;;;;;;5073633;28;20025;-77
2023/03/02 02:27:47;;;;;;;100.25;36.20;;;;;;;;;;5057496;28;20041;-78
2023/03/02 02:30:13;;;;;;;90.85;29.58;;;;;;;;;;5057676;28;20028;-77
2023/03/02 02:32:38;;;;;;;90.97;32.25;;;;;;;;;;5041380;28;20035;-78
2023/03/02 02:35:13;;;;;;;84.40;29.70;;;;;;;;;;5057669;28;20445;-77
2023/03/02 02:37:48;;;;;;;73.97;26.73;;;;;;;;;;5041124;28;20059;-77
2023/03/02 02:40:35;;;;;;;92.82;30.95;;;;;;;;;;5041050;28;20031;-77
2023/03/02 02:43:00;;;;;;;95.53;32.65;;;;;;;;;;5057109;28;20033;-77
2023/03/02 02:45:26;;;;;;;89.82;31.42;;;;;;;;;;5057220;28;20029;-77
2023/03/02 02:47:52;;;;;;;73.90;25.73;;;;;;;;;;5056648;28;20067;-79
2023/03/02 02:50:19;;;;;;;65.10;21.65;;;;;;;;;;5057448;28;20024;-79
2023/03/02 02:52:47;;;;;;;108.50;34.90;;;;;;;;;;5040777;28;20400;-78
2023/03/02 02:55:14;;;;;;;94.43;31.85;;;;;;;;;;5057699;28;20490;-78
2023/03/02 02:57:39;;;;;;;98.45;31.35;;;;;;;;;;5040873;28;20036;-79
2023/03/02 03:00:06;;;;;;;89.43;28.58;;;;;;;;;;5057235;28;20035;-78
2023/03/02 03:02:33;;;;;;;94.07;31.73;;;;;;;;;;5057247;28;20378;-79
2023/03/02 03:05:02;;;;;;;103.38;36.40;;;;;;;;;;5057080;28;20029;-78
2023/03/02 03:07:28;;;;;;;84.38;28.70;;;;;;;;;;5073645;28;20037;-78
2023/03/02 03:10:03;;;;;;;88.80;29.75;;;;;;;;;;5056880;28;20090;-79
2023/03/02 03:12:28;;;;;;;96.10;33.13;;;;;;;;;;5073627;28;20394;-78
2023/03/02 03:14:54;;;;;;;85.70;30.38;;;;;;;;;;5057435;28;20131;-78
2023/03/02 03:17:19;;;;;;;110.97;35.85;;;;;;;;;;5056827;28;20060;-78
2023/03/02 03:19:45;;;;;;;106.60;37.45;;;;;;;;;;5073354;28;20028;-79
2023/03/02 03:22:11;;;;;;;105.88;33.95;;;;;;;;;;5056693;28;20068;-78
2023/03/02 03:24:37;;;;;;;116.47;37.08;;;;;;;;;;5053764;28;20032;-79
2023/03/02 03:27:06;;;;;;;112.57;34.97;;;;;;;;;;5067130;28;20035;-78
2023/03/02 03:29:32;;;;;;;109.45;31.77;;;;;;;;;;5093627;28;20055;-78
2023/03/02 03:31:58;;;;;;;112.60;33.95;;;;;;;;;;5076541;28;20361;-78
2023/03/02 03:34:24;;;;;;;96.82;32.95;;;;;;;;;;5072802;28;20048;-77
2023/03/02 03:36:49;;;;;;;133.52;44.90;;;;;;;;;;5056362;28;20058;-78
2023/03/02 03:39:15;;;;;;;121.28;34.70;;;;;;;;;;5056142;28;20025;-79
2023/03/02 03:41:40;;;;;;;115.50;35.97;;;;;;;;;;5056367;28;20446;-78
2023/03/02 03:44:06;;;;;;;121.22;38.58;;;;;;;;;;5065458;28;20028;-80
2023/03/02 03:46:32;;;;;;;112.88;35.55;;;;;;;;;;5065540;28;20058;-78
2023/03/02 03:48:57;;;;;;;94.25;29.50;;;;;;;;;;5039626;28;20029;-78
2023/03/02 03:51:23;;;;;;;94.78;31.65;;;;;;;;;;5074048;28;20026;-79
2023/03/02 03:53:58;;;;;;;120.60;36.95;;;;;;;;;;5056400;28;20119;-78
2023/03/02 03:56:32;;;;;;;120.65;41.35;;;;;;;;;;5040854;28;20036;-78
2023/03/02 03:59:07;;;;;;;114.80;34.00;;;;;;;;;;5039333;28;20016;-77
2023/03/02 04:01:40;;;;;;;113.28;38.92;;;;;;;;;;5041916;28;20052;-79
2023/03/02 04:04:07;;;;;;;118.15;41.30;;;;;;;;;;5023604;28;20025;-79
2023/03/02 04:06:32;;;;;;;124.40;41.10;;;;;;;;;;5055974;28;20068;-78
2023/03/02 04:09:03;;;;;;;112.20;37.45;;;;;;;;;;5022897;28;20064;-78
2023/03/02 04:11:32;;;;;;;133.57;45.35;;;;;;;;;;5040980;28;20020;-79
2023/03/02 04:13:57;;;;;;;124.78;38.55;;;;;;;;;;5055918;28;20032;-79
2023/03/02 04:16:23;;;;;;;109.30;35.15;;;;;;;;;;5056006;28;20033;-78
2023/03/02 04:18:48;;;;;;;112.28;37.95;;;;;;;;;;5055979;28;20035;-78
2023/03/02 04:21:14;;;;;;;71.22;22.73;;;;;;;;;;5073744;28;20739;-78
2023/03/02 04:23:39;;;;;;;108.95;34.75;;;;;;;;;;5039016;28;20101;-78
2023/03/02 04:26:04;;;;;;;114.95;36.53;;;;;;;;;;5055398;28;20025;-77
2023/03/02 04:28:31;;;;;;;103.28;34.15;;;;;;;;;;5069219;28;20032;-78
2023/03/02 04:30:56;;;;;;;120.25;36.45;;;;;;;;;;5039606;28;20094;-79
2023/03/02 04:33:22;;;;;;;100.32;35.28;;;;;;;;;;5057249;28;20028;-78
2023/03/02 04:35:47;;;;;;;104.03;33.95;;;;;;;;;;5093815;28;20450;-78
2023/03/02 04:38:13;;;;;;;92.07;30.48;;;;;;;;;;5075495;28;20039;-78
2023/03/02 04:40:38;;;;;;;122.95;41.70;;;;;;;;;;5093861;28;20460;-78
2023/03/02 04:43:04;;;;;;;112.53;38.22;;;;;;;;;;5075982;28;20024;-79
2023/03/02 04:45:29;;;;;;;97.10;31.48;;;;;;;;;;5075792;28;20026;-78
2023/03/02 04:47:54;;;;;;;84.90;27.15;;;;;;;;;;5092415;28;20067;-79
2023/03/02 04:50:20;;;;;;;69.82;25.70;;;;;;;;;;5075655;28;20093;-77
2023/03/02 04:52:46;;;;;;;96.38;33.20;;;;;;;;;;5093848;28;20024;-78
2023/03/02 04:55:18;;;;;;;88.00;32.80;;;;;;;;;;5093718;28;20413;-79
2023/03/02 04:57:43;;;;;;;91.82;32.03;;;;;;;;;;5075820;28;20016;-78
2023/03/02 05:00:10;;;;;;;94.70;35.50;;;;;;;;;;5092548;28;20059;-78
2023/03/02 05:02:35;;;;;;;92.03;31.80;;;;;;;;;;5075712;28;20032;-78
2023/03/02 05:05:00;;;;;;;98.78;34.72;;;;;;;;;;5076010;28;20349;-79
2023/03/02 05:07:26;;;;;;;79.63;28.30;;;;;;;;;;5075265;28;20059;-78
2023/03/02 05:09:51;;;;;;;80.93;30.98;;;;;;;;;;5075478;28;20016;-78
2023/03/02 05:12:20;;;;;;;81.20;31.25;;;;;;;;;;5078814;28;20108;-79
2023/03/02 05:14:46;;;;;;;82.63;30.85;;;;;;;;;;5097275;28;20050;-79
2023/03/02 05:17:11;;;;;;;82.78;31.02;;;;;;;;;;5096163;28;20482;-78
2023/03/02 05:19:36;;;;;;;72.32;29.02;;;;;;;;;;5097440;28;20026;-79
2023/03/02 05:22:02;;;;;;;55.00;23.25;;;;;;;;;;5095953;28;20016;-79
2023/03/02 05:24:27;;;;;;;64.30;26.52;;;;;;;;;;5078977;28;20020;-78
2023/03/02 05:26:53;;;;;;;60.13;24.00;;;;;;;;;;5097065;28;20028;-78
2023/03/02 05:29:18;;;;;;;69.68;27.45;;;;;;;;;;5040827;28;20032;-78
2023/03/02 05:31:44;;;;;;;56.85;23.20;;;;;;;;;;5076219;28;20566;-78
2023/03/02 05:34:10;;;;;;;64.80;25.17;;;;;;;;;;5092147;28;20041;-77
2023/03/02 05:36:36;;;;;;;53.22;20.27;;;;;;;;;;5074984;28;20024;-78
2023/03/02 05:39:02;;;;;;;70.85;26.05;;;;;;;;;;5057635;28;20112;-81
2023/03/02 05:41:28;;;;;;;65.38;25.70;;;;;;;;;;5075328;28;20434;-81
2023/03/02 05:43:53;;;;;;;64.10;27.40;;;;;;;;;;5058641;28;20026;-81
2023/03/02 05:46:19;;;;;;;64.25;24.05;;;;;;;;;;5082961;28;20516;-80
2023/03/02 05:48:45;;;;;;;66.80;29.02;;;;;;;;;;5064620;28;20434;-81
2023/03/02 05:51:10;;;;;;;63.45;25.15;;;;;;;;;;5072975;28;20024;-79
2023/03/02 05:53:36;;;;;;;55.72;23.90;;;;;;;;;;5062271;28;20024;-77
2023/03/02 05:56:02;;;;;;;59.25;25.25;;;;;;;;;;5073956;28;20071;-76
2023/03/02 05:58:28;;;;;;;55.63;24.27;;;;;;;;;;5079396;28;20443;-78
2023/03/02 06:00:54;;;;;;;53.47;20.73;;;;;;;;;;5060757;28;20032;-75
2023/03/02 06:03:21;;;;;;;57.75;25.38;;;;;;;;;;5068043;28;20123;-75
2023/03/02 06:05:51;;;;;;;58.22;22.55;;;;;;;;;;5052497;28;20089;-75
2023/03/02 06:08:17;;;;;;;63.70;26.10;;;;;;;;;;5056883;28;20040;-75
2023/03/02 06:10:43;;;;;;;55.30;24.20;;;;;;;;;;5061273;28;20043;-77
2023/03/02 06:13:08;;;;;;;58.58;27.20;;;;;;;;;;5046084;28;20040;-74
2023/03/02 06:15:34;;;;;;;60.25;24.65;;;;;;;;;;5064467;28;20031;-74
2023/03/02 06:18:01;;;;;;;57.67;23.60;;;;;;;;;;5055285;28;20054;-74
2023/03/02 06:20:26;;;;;;;71.97;30.17;;;;;;;;;;5082486;28;20078;-75
2023/03/02 06:22:52;;;;;;;38.67;14.93;;;;;;;;;;5075606;28;20033;-75
2023/03/02 06:25:20;;;;;;;61.17;26.00;;;;;;;;;;5070012;28;20036;-75
2023/03/02 06:27:46;;;;;;;61.13;23.92;;;;;;;;;;5054940;28;20036;-73
2023/03/02 06:30:15;;;;;;;57.80;24.48;;;;;;;;;;5076814;28;20331;-75
2023/03/02 06:32:41;;;;;;;60.47;24.98;;;;;;;;;;5057668;28;20453;-73
2023/03/02 06:35:07;;;;;;;61.58;25.83;;;;;;;;;;5067363;28;20047;-75
2023/03/02 06:37:33;;;;;;;59.55;25.58;;;;;;;;;;5065470;28;20037;-75
2023/03/02 06:39:59;;;;;;;63.60;26.73;;;;;;;;;;5080620;28;20073;-76
2023/03/02 06:42:24;;;;;;;62.03;26.10;;;;;;;;;;5092902;28;20052;-75
2023/03/02 06:44:50;;;;;;;56.97;25.75;;;;;;;;;;5066107;28;20089;-75
2023/03/02 06:47:17;;;;;;;69.03;26.67;;;;;;;;;;5071156;28;20066;-75
2023/03/02 06:49:42;;;;;;;65.22;27.52;;;;;;;;;;5076986;28;20031;-75
2023/03/02 06:52:09;;;;;;;33.45;16.02;;;;;;;;;;5073623;28;20775;-74
2023/03/02 06:54:35;;;;;;;63.58;26.55;;;;;;;;;;5081740;28;20054;-74
2023/03/02 06:57:01;;;;;;;57.25;23.85;;;;;;;;;;5083138;28;20024;-75
2023/03/02 06:59:30;;;;;;;55.35;26.23;;;;;;;;;;5056840;28;20143;-75
2023/03/02 07:01:56;;;;;;;60.80;25.90;;;;;;;;;;5056737;28;20044;-76
2023/03/02 07:04:45;;;;;;;57.13;24.88;;;;;;;;;;5061475;28;20067;-74
2023/03/02 07:07:10;;;;;;;70.30;29.40;;;;;;;;;;5077010;28;20097;-74
2023/03/02 07:09:36;;;;;;;52.20;22.40;;;;;;;;;;5088317;28;20032;-74
2023/03/02 07:12:02;;;;;;;56.40;25.55;;;;;;;;;;5070335;28;20032;-76
2023/03/02 07:14:27;;;;;;;58.53;24.95;;;;;;;;;;5067183;28;20028;-75
2023/03/02 07:16:55;;;;;;;57.85;26.55;;;;;;;;;;5071424;28;20133;-76
2023/03/02 07:19:21;;;;;;;53.30;24.38;;;;;;;;;;5073655;28;20418;-75
2023/03/02 07:21:46;;;;;;;60.72;25.77;;;;;;;;;;5037943;28;20734;-75
2023/03/02 07:24:12;;;;;;;58.20;25.92;;;;;;;;;;5073762;28;20063;-75
2023/03/02 07:26:37;;;;;;;55.40;26.42;;;;;;;;;;5071803;28;20135;-76
2023/03/02 07:29:03;;;;;;;59.25;24.70;;;;;;;;;;5075940;28;20211;-76
2023/03/02 07:31:29;;;;;;;56.92;25.58;;;;;;;;;;5073558;28;20135;-77
2023/03/02 07:33:55;;;;;;;62.08;23.98;;;;;;;;;;5080699;28;20052;-77
2023/03/02 07:36:21;;;;;;;61.67;26.58;;;;;;;;;;5088426;28;20054;-75
2023/03/02 07:38:47;;;;;;;56.08;25.75;;;;;;;;;;5079378;28;20039;-79
2023/03/02 07:41:15;;;;;;;52.70;24.50;;;;;;;;;;5052845;28;20028;-76
2023/03/02 07:43:40;;;;;;;53.05;24.58;;;;;;;;;;5051314;28;20090;-76
2023/03/02 07:46:06;;;;;;;54.50;23.23;;;;;;;;;;5070401;28;20032;-72
2023/03/02 07:48:32;;;;;;;45.50;20.73;;;;;;;;;;5055695;28;20067;-74
2023/03/02 07:50:59;;;;;;;48.22;22.48;;;;;;;;;;5071102;28;20036;-74
2023/03/02 07:53:24;;;;;;;68.75;32.30;;;;;;;;;;5061510;28;20024;-75
2023/03/02 07:55:50;;;;;;;52.83;22.25;;;;;;;;;;5089932;28;20028;-73
2023/03/02 07:58:16;;;;;;;67.47;26.65;;;;;;;;;;5089797;28;20063;-73
2023/03/02 08:00:41;;;;;;;61.80;23.20;;;;;;;;;;5056460;28;20029;-75
2023/03/02 08:03:06;;;;;;;65.65;30.92;;;;;;;;;;5051450;28;20086;-75
2023/03/02 08:05:32;;;;;;;55.10;23.45;;;;;;;;;;5051958;28;20459;-76
2023/03/02 08:07:57;;;;;;;73.05;37.50;;;;;;;;;;5070484;28;20040;-76
2023/03/02 08:10:23;;;;;;;61.60;29.35;;;;;;;;;;5062785;28;20477;-75
2023/03/02 08:12:51;;;;;;;50.30;23.13;;;;;;;;;;5047131;28;20497;-75
2023/03/02 08:15:16;;;;;;;34.90;15.90;;;;;;;;;;5086571;28;20032;-74
2023/03/02 08:17:42;;;;;;;65.10;28.50;;;;;;;;;;5072771;28;20059;-75
2023/03/02 08:20:08;;;;;;;57.75;23.83;;;;;;;;;;5056384;28;20460;-77
2023/03/02 08:22:35;;;;;;;58.28;25.38;;;;;;;;;;5071239;28;20036;-75
2023/03/02 08:25:00;;;;;;;56.83;24.13;;;;;;;;;;5065997;28;20035;-74
2023/03/02 08:27:26;;;;;;;50.03;25.17;;;;;;;;;;5065030;28;20040;-75
2023/03/02 08:29:53;;;;;;;62.97;24.20;;;;;;;;;;5086352;28;20419;-74
2023/03/02 08:32:21;;;;;;;56.25;24.98;;;;;;;;;;5059598;28;20032;-76
2023/03/02 08:34:50;;;;;;;60.85;29.92;;;;;;;;;;5050950;28;20051;-76
2023/03/02 08:37:16;;;;;;;56.08;26.42;;;;;;;;;;5054065;28;20032;-77
2023/03/02 08:39:42;;;;;;;56.08;27.42;;;;;;;;;;5054348;28;20107;-79
2023/03/02 08:42:07;;;;;;;72.45;32.45;;;;;;;;;;5055165;28;20510;-76
2023/03/02 08:44:33;;;;;;;57.58;24.45;;;;;;;;;;5072619;28;20089;-76
2023/03/02 08:46:58;;;;;;;45.35;18.75;;;;;;;;;;5094500;28;20044;-74
2023/03/02 08:49:24;;;;;;;65.05;29.35;;;;;;;;;;5077099;28;20070;-76
2023/03/02 08:51:52;;;;;;;60.85;26.83;;;;;;;;;;5076889;28;20028;-75
2023/03/02 08:54:19;;;;;;;58.08;26.33;;;;;;;;;;5073036;28;20566;-75
2023/03/02 08:56:44;;;;;;;55.72;23.10;;;;;;;;;;5056733;28;20044;-76
2023/03/02 08:59:11;;;;;;;52.38;25.65;;;;;;;;;;5076752;28;20028;-73
2023/03/02 09:01:36;;;;;;;62.33;29.33;;;;;;;;;;5074603;28;20031;-76
2023/03/02 09:04:03;;;;;;;64.57;31.42;;;;;;;;;;5040076;28;20449;-75
2023/03/02 09:06:30;;;;;;;62.85;28.42;;;;;;;;;;5086126;28;20115;-77
2023/03/02 09:08:56;;;;;;;64.07;28.67;;;;;;;;;;5073677;28;20025;-75
2023/03/02 09:11:22;;;;;;;61.97;26.65;;;;;;;;;;5056944;28;20362;-75
2023/03/02 09:13:47;;;;;;;59.65;28.02;;;;;;;;;;5077973;28;20029;-76
2023/03/02 09:16:13;;;;;;;50.42;23.52;;;;;;;;;;5074621;28;20040;-75
2023/03/02 09:18:39;;;;;;;60.92;26.65;;;;;;;;;;5075831;28;20024;-76
2023/03/02 09:21:07;;;;;;;78.13;34.67;;;;;;;;;;5057815;28;20029;-76
2023/03/02 09:23:35;;;;;;;68.97;33.80;;;;;;;;;;5094821;28;20035;-76
2023/03/02 09:26:01;;;;;;;74.40;36.20;;;;;;;;;;5070891;28;20043;-77
2023/03/02 09:28:26;;;;;;;63.55;29.35;;;;;;;;;;5075416;28;20059;-76
2023/03/02 09:30:53;;;;;;;73.88;31.35;;;;;;;;;;5075247;28;20025;-77
2023/03/02 09:33:18;;;;;;;69.25;30.13;;;;;;;;;;5075461;28;20021;-76
2023/03/02 09:35:45;;;;;;;79.88;37.33;;;;;;;;;;5089973;28;20475;-75
2023/03/02 09:38:14;;;;;;;65.20;30.80;;;;;;;;;;5089075;28;20093;-77
2023/03/02 09:41:02;;;;;;;66.60;30.35;;;;;;;;;;5060112;28;20105;-76
2023/03/02 09:43:31;;;;;;;72.32;33.22;;;;;;;;;;5021432;28;20129;-76
2023/03/02 09:46:16;;;;;;;65.00;30.13;;;;;;;;;;5078208;28;20348;-76
2023/03/02 09:48:52;;;;;;;76.05;35.70;;;;;;;;;;5082598;28;20047;-76
2023/03/02 09:51:42;;;;;;;65.50;30.85;;;;;;;;;;5070673;28;20458;-73
2023/03/02 09:54:25;;;;;;;73.28;36.10;;;;;;;;;;5078003;28;20040;-75
2023/03/02 09:56:58;;;;;;;79.35;39.50;;;;;;;;;;5079085;28;20032;-73
2023/03/02 09:59:36;;;;;;;75.05;37.75;;;;;;;;;;5063965;28;20029;-75
2023/03/02 10:05:07;;;;;;;71.00;34.83;;;;;;;;;;5061567;28;20120;-76
2023/03/02 10:07:37;;;;;;;66.72;32.10;;;;;;;;;;5055795;28;20037;-76
2023/03/02 10:10:08;;;;;;;64.57;26.98;;;;;;;;;;5059817;28;20050;-76
2023/03/02 10:12:45;;;;;;;54.08;27.50;;;;;;;;;;5079327;28;20047;-75
2023/03/02 10:15:20;;;;;;;45.72;22.42;;;;;;;;;;5078124;28;20028;-74
2023/03/02 10:17:45;;;;;;;63.78;29.90;;;;;;;;;;5079818;28;20024;-75
2023/03/02 10:20:18;;;;;;;56.70;25.65;;;;;;;;;;5094629;28;20451;-75
2023/03/02 10:22:47;;;;;;;55.65;25.63;;;;;;;;;;5054703;28;20029;-75
2023/03/02 10:25:22;;;;;;;42.97;18.98;;;;;;;;;;5043938;28;20024;-77
2023/03/02 10:27:53;;;;;;;53.42;26.67;;;;;;;;;;5073929;28;20102;-76
2023/03/02 10:30:24;;;;;;;21.80;10.55;;;;;;;;;;5062474;28;20017;-77
2023/03/02 10:32:50;;;;;;;37.63;17.55;;;;;;;;;;5065572;28;20362;-77
2023/03/02 10:35:21;;;;;;;43.08;20.92;;;;;;;;;;5052618;28;20033;-76
2023/03/02 10:37:47;;;;;;;46.13;21.33;;;;;;;;;;5047878;28;20024;-75
2023/03/02 10:40:27;;;;;;;35.85;17.92;;;;;;;;;;5035833;28;20016;-77
2023/03/02 10:42:52;;;;;;;42.55;19.17;;;;;;;;;;5027319;28;20335;-75
2023/03/02 10:45:28;;;;;;;46.47;20.42;;;;;;;;;;5056533;28;20062;-76
2023/03/02 10:48:04;;;;;;;45.10;22.65;;;;;;;;;;5053685;28;20059;-74
2023/03/02 10:50:30;;;;;;;41.60;18.55;;;;;;;;;;5071182;28;20373;-74
2023/03/02 10:52:55;;;;;;;45.33;19.75;;;;;;;;;;5053017;28;20020;-76
2023/03/02 10:55:21;;;;;;;50.00;22.80;;;;;;;;;;5070273;28;20039;-77
2023/03/02 10:57:59;;;;;;;40.70;19.13;;;;;;;;;;5069340;28;20082;-77
2023/03/02 11:00:26;;;;;;;43.50;19.00;;;;;;;;;;5052351;28;20453;-75
2023/03/02 11:03:00;;;;;;;48.28;18.63;;;;;;;;;;5052754;28;20047;-77
2023/03/02 11:05:28;;;;;;;45.50;20.08;;;;;;;;;;5070421;28;20032;-77
2023/03/02 11:07:57;;;;;;;40.95;19.65;;;;;;;;;;5070084;28;20040;-77
2023/03/02 11:10:31;;;;;;;43.65;19.95;;;;;;;;;;5053528;28;20017;-76
2023/03/02 11:12:57;;;;;;;43.13;19.23;;;;;;;;;;5069604;28;20024;-77
2023/03/02 11:15:31;;;;;;;45.08;19.92;;;;;;;;;;5033873;28;20025;-76
2023/03/02 11:18:04;;;;;;;49.17;22.27;;;;;;;;;;5056481;28;20020;-76
2023/03/02 11:20:32;;;;;;;42.70;18.20;;;;;;;;;;5050377;28;20619;-77
2023/03/02 11:23:18;;;;;;;32.75;15.43;;;;;;;;;;5018154;28;20119;-76
2023/03/02 11:25:51;;;;;;;42.47;19.10;;;;;;;;;;5050837;28;20518;-74
2023/03/02 11:28:37;;;;;;;45.97;21.45;;;;;;;;;;5035368;28;20288;-75
2023/03/02 11:31:05;;;;;;;47.50;21.45;;;;;;;;;;5020537;28;20469;-75
2023/03/02 11:33:38;;;;;;;49.00;25.02;;;;;;;;;;5036127;28;20069;-73
2023/03/02 11:36:16;;;;;;;51.65;21.38;;;;;;;;;;5068926;28;20048;-75
2023/03/02 11:38:49;;;;;;;60.25;27.50;;;;;;;;;;5036662;28;20113;-77
2023/03/02 11:41:29;;;;;;;54.72;23.55;;;;;;;;;;5058548;28;20035;-75
2023/03/02 11:43:57;;;;;;;52.95;23.00;;;;;;;;;;5079112;28;20272;-75
2023/03/02 11:46:25;;;;;;;47.90;21.83;;;;;;;;;;5046943;28;20066;-75
2023/03/02 11:48:53;;;;;;;49.58;23.15;;;;;;;;;;5072639;28;20446;-75
2023/03/02 11:51:38;;;;;;;56.38;24.63;;;;;;;;;;5065796;28;20365;-75
2023/03/02 11:54:05;;;;;;;57.70;23.73;;;;;;;;;;5076411;28;21519;-74
2023/03/02 11:56:33;;;;;;;51.78;24.70;;;;;;;;;;5045258;28;20033;-76
2023/03/02 11:59:03;;;;;;;46.65;19.83;;;;;;;;;;5067733;28;20097;-75
2023/03/02 12:01:28;;;;;;;53.45;22.77;;;;;;;;;;5049802;28;20035;-75
2023/03/02 12:04:05;;;;;;;57.35;23.73;;;;;;;;;;5058833;28;20107;-74
2023/03/02 12:06:36;;;;;;;45.08;19.67;;;;;;;;;;5057771;28;20060;-75
2023/03/02 12:09:10;;;;;;;;;;;;;;;;;;5034834;28;20775;-75
2023/03/02 12:11:38;;;;;;;47.15;20.92;;;;;;;;;;5081209;28;19916;-75
2023/03/02 12:14:05;;;;;;;44.55;20.63;;;;;;;;;;5057061;28;20031;-74
2023/03/02 12:16:36;;;;;;;41.33;20.33;;;;;;;;;;5062725;28;20017;-74
2023/03/02 12:19:33;;;;;;;48.97;21.80;;;;;;;;;;5070383;28;20157;-74
2023/03/02 12:22:01;;;;;;;45.85;20.25;;;;;;;;;;5050799;28;20126;-74
2023/03/02 12:24:28;;;;;;;34.45;15.80;;;;;;;;;;5058970;28;20056;-76
2023/03/02 12:27:04;;;;;;;42.47;19.88;;;;;;;;;;5056972;28;20047;-74
2023/03/02 12:29:44;;;;;;;52.95;22.00;;;;;;;;;;5085377;28;20054;-75
2023/03/02 12:32:29;;;;;;;50.25;23.55;;;;;;;;;;5069202;28;20059;-74
2023/03/02 12:35:07;;;;;;;41.70;18.70;;;;;;;;;;5045298;28;20033;-73
2023/03/02 12:37:50;;;;;;;50.70;23.20;;;;;;;;;;5066157;28;20492;-75
2023/03/02 12:40:27;;;;;;;58.85;25.15;;;;;;;;;;5030527;28;20033;-74
2023/03/02 12:43:10;;;;;;;57.60;24.10;;;;;;;;;;5066210;28;20442;-75
2023/03/02 12:46:03;;;;;;;49.60;23.77;;;;;;;;;;5048973;28;20087;-74
2023/03/02 12:48:35;;;;;;;52.83;22.45;;;;;;;;;;5065280;28;20037;-73
2023/03/02 12:51:02;;;;;;;59.72;24.83;;;;;;;;;;5067591;28;20031;-74
2023/03/02 12:53:27;;;;;;;57.95;24.88;;;;;;;;;;5050613;28;20451;-76
2023/03/02 12:55:53;;;;;;;60.00;28.50;;;;;;;;;;5041618;28;20046;-76
2023/03/02 12:58:23;;;;;;;51.65;23.65;;;;;;;;;;5036804;28;20027;-76
2023/03/02 13:00:56;;;;;;;55.92;23.75;;;;;;;;;;5052282;28;20056;-75
2023/03/02 13:03:22;;;;;;;58.88;24.48;;;;;;;;;;5052662;28;20037;-77
2023/03/02 13:05:48;;;;;;;64.53;27.90;;;;;;;;;;5051554;28;20036;-75
2023/03/02 13:08:16;;;;;;;54.35;24.08;;;;;;;;;;5051932;28;20036;-75
2023/03/02 13:10:46;;;;;;;62.35;27.30;;;;;;;;;;5071119;28;20361;-75
2023/03/02 13:13:20;;;;;;;62.90;27.60;;;;;;;;;;5037602;28;20016;-75
2023/03/02 13:15:59;;;;;;;62.55;26.58;;;;;;;;;;5054684;28;20036;-76
2023/03/02 13:18:27;;;;;;;56.65;25.67;;;;;;;;;;5053883;28;20055;-75
2023/03/02 13:20:52;;;;;;;69.88;28.35;;;;;;;;;;5021072;28;20033;-75
2023/03/02 13:23:18;;;;;;;68.72;28.92;;;;;;;;;;5038216;28;20032;-73
2023/03/02 13:25:57;;;;;;;57.72;25.40;;;;;;;;;;5022321;28;20343;-76
2023/03/02 13:28:41;;;;;;;52.65;24.50;;;;;;;;;;5038716;28;20128;-75
2023/03/02 13:31:20;;;;;;;66.55;28.25;;;;;;;;;;5072825;28;20082;-74
2023/03/02 13:33:47;;;;;;;71.97;30.90;;;;;;;;;;5042294;28;20058;-74
2023/03/02 13:36:26;;;;;;;66.97;31.60;;;;;;;;;;5060788;28;20051;-76
2023/03/02 13:38:55;;;;;;;83.75;33.05;;;;;;;;;;5068928;28;20034;-75
2023/03/02 13:41:25;;;;;;;109.47;43.47;;;;;;;;;;5047308;28;20031;-77
2023/03/02 13:43:50;;;;;;;85.07;36.08;;;;;;;;;;5042387;28;20043;-76
2023/03/02 13:46:15;;;;;;;85.70;37.25;;;;;;;;;;5076997;28;20412;-76
2023/03/02 13:48:54;;;;;;;97.47;40.83;;;;;;;;;;5076091;28;20041;-75
2023/03/02 13:51:19;;;;;;;64.03;27.83;;;;;;;;;;5025704;28;20420;-75
2023/03/02 13:54:10;;;;;;;72.95;29.48;;;;;;;;;;5025074;28;20041;-76
2023/03/02 13:56:37;;;;;;;84.90;32.70;;;;;;;;;;5073859;28;20066;-75
2023/03/02 13:59:03;;;;;;;95.00;39.05;;;;;;;;;;5069447;28;20028;-75
2023/03/02 14:01:28;;;;;;;78.55;30.27;;;;;;;;;;5039972;28;20031;-75
2023/03/02 14:03:54;;;;;;;112.40;45.47;;;;;;;;;;5040413;28;20021;-75
2023/03/02 14:06:20;;;;;;;67.40;28.38;;;;;;;;;;5074838;28;20044;-75
2023/03/02 14:08:45;;;;;;;83.75;33.45;;;;;;;;;;5040175;28;20039;-74
2023/03/02 14:11:14;;;;;;;81.40;32.60;;;;;;;;;;5057662;28;20025;-75
2023/03/02 14:13:49;;;;;;;79.15;31.10;;;;;;;;;;5057808;28;20170;-75
2023/03/02 14:16:15;;;;;;;59.25;24.38;;;;;;;;;;5042319;28;20111;-76
2023/03/02 14:18:44;;;;;;;68.53;28.67;;;;;;;;;;5040911;28;20025;-75
2023/03/02 14:21:17;;;;;;;94.82;36.53;;;;;;;;;;5057843;28;20103;-75
2023/03/02 14:23:43;;;;;;;79.32;32.83;;;;;;;;;;5058013;28;20020;-75
2023/03/02 14:26:27;;;;;;;87.20;35.25;;;;;;;;;;5057474;28;20024;-75